Time;durP1;ratioP1;P1;durP2;ratioP2;P2;SDS_P1;SDS_P2;PMS_P1;PMS_P2;Temp;Humidity;BMP_temperature;BMP_pressure;BME280_temperature;BME280_humidity;BME280_pressure;Samples;Min_cycle;Max_cycle;Signal;HPM_P1;HPM_P2
2022/05/11 00:01:46;;;;;;;5.07;3.97;;;17.60;95.70;;;;;;5088188;28;20062;-73
2022/05/11 00:04:12;;;;;;;6.60;4.05;;;17.50;96.00;;;;;;5073068;28;20085;-73
2022/05/11 00:06:38;;;;;;;6.15;4.35;;;17.50;96.40;;;;;;5077803;28;20037;-72
2022/05/11 00:09:07;;;;;;;7.47;4.40;;;17.40;96.60;;;;;;5084762;28;20353;-74
2022/05/11 00:11:36;;;;;;;5.40;4.07;;;17.40;97.00;;;;;;5085943;28;20489;-72
2022/05/11 00:14:03;;;;;;;6.35;4.05;;;17.40;97.10;;;;;;5094459;28;20030;-73
2022/05/11 00:16:30;;;;;;;5.28;4.18;;;17.30;97.40;;;;;;5092180;28;20050;-73
2022/05/11 00:18:58;;;;;;;4.85;3.90;;;17.30;97.60;;;;;;5089042;28;20047;-74
2022/05/11 00:21:34;;;;;;;5.97;4.53;;;17.30;97.70;;;;;;5076406;28;20024;-73
2022/05/11 00:23:59;;;;;;;6.93;4.05;;;17.20;98.10;;;;;;5094440;28;20091;-73
2022/05/11 00:26:28;;;;;;;4.85;4.10;;;17.20;98.20;;;;;;5087626;28;20112;-73
2022/05/11 00:28:54;;;;;;;6.00;4.05;;;17.20;98.50;;;;;;5081224;28;20028;-73
2022/05/11 00:31:23;;;;;;;5.32;4.05;;;17.10;98.70;;;;;;5057815;28;20078;-73
2022/05/11 00:33:48;;;;;;;7.90;4.53;;;17.10;98.90;;;;;;5084426;28;20507;-73
2022/05/11 00:36:14;;;;;;;4.18;3.70;;;17.00;99.10;;;;;;5093346;28;20020;-72
2022/05/11 00:38:40;;;;;;;4.85;3.78;;;17.00;99.40;;;;;;5084704;28;20021;-72
2022/05/11 00:41:09;;;;;;;5.43;4.07;;;17.00;99.80;;;;;;5064585;28;20110;-73
2022/05/11 00:44:01;;;;;;;5.50;4.25;;;16.90;99.90;;;;;;5069453;28;20055;-73
2022/05/11 00:46:39;;;;;;;6.32;4.07;;;16.90;99.90;;;;;;5088536;28;20032;-73
2022/05/11 00:49:34;;;;;;;6.10;4.22;;;16.80;99.90;;;;;;5093701;28;20059;-73
2022/05/11 00:52:14;;;;;;;4.85;4.35;;;16.80;99.90;;;;;;5086822;28;20028;-73
2022/05/11 00:54:45;;;;;;;5.72;3.60;;;16.80;99.90;;;;;;5082195;28;20020;-73
2022/05/11 00:57:36;;;;;;;5.80;4.32;;;16.70;99.90;;;;;;5087959;28;20020;-73
2022/05/11 01:00:06;;;;;;;5.95;4.30;;;16.70;99.90;;;;;;5087550;28;20485;-72
2022/05/11 01:02:35;;;;;;;4.35;3.88;;;16.60;99.90;;;;;;5083513;28;20024;-72
2022/05/11 01:05:05;;;;;;;6.68;3.83;;;16.60;99.90;;;;;;5093557;28;20038;-72
2022/05/11 01:07:37;;;;;;;6.30;3.92;;;16.50;99.90;;;;;;5093569;28;20097;-73
2022/05/11 01:10:05;;;;;;;4.80;3.97;;;16.50;99.90;;;;;;5089862;28;20481;-71
2022/05/11 01:12:37;;;;;;;5.15;3.90;;;16.50;99.90;;;;;;5082965;28;20024;-72
2022/05/11 01:15:04;;;;;;;8.75;4.05;;;16.50;99.90;;;;;;5056149;28;20024;-73
2022/05/11 01:17:32;;;;;;;6.90;4.15;;;16.50;99.90;;;;;;5080107;28;20385;-72
2022/05/11 01:19:58;;;;;;;5.90;4.13;;;16.40;99.90;;;;;;5092660;28;20023;-72
2022/05/11 01:22:54;;;;;;;6.10;4.05;;;16.40;99.90;;;;;;5093198;28;20368;-72
2022/05/11 01:25:20;;;;;;;5.93;3.95;;;16.30;99.90;;;;;;5067916;28;20028;-72
2022/05/11 01:27:47;;;;;;;5.30;4.28;;;16.30;99.90;;;;;;5091065;28;20486;-73
2022/05/11 01:30:19;;;;;;;4.72;3.75;;;16.30;99.90;;;;;;5084986;28;20099;-72
2022/05/11 01:32:57;;;;;;;5.50;4.25;;;16.30;99.90;;;;;;5089977;28;20473;-72
2022/05/11 01:35:58;;;;;;;4.90;4.22;;;16.30;99.90;;;;;;5073600;28;20127;-72
2022/05/11 01:39:00;;;;;;;5.30;4.30;;;16.20;99.90;;;;;;5089927;28;20024;-73
2022/05/11 01:41:38;;;;;;;5.13;4.10;;;16.20;99.90;;;;;;5087675;28;20111;-72
2022/05/11 01:44:07;;;;;;;6.32;3.97;;;16.10;99.90;;;;;;5073581;28;20233;-73
2022/05/11 01:46:43;;;;;;;5.85;3.83;;;16.10;99.90;;;;;;5081415;28;20095;-73
2022/05/11 01:49:09;;;;;;;6.80;4.10;;;16.10;99.90;;;;;;5077561;28;20052;-73
2022/05/11 01:51:37;;;;;;;6.85;3.97;;;16.10;99.90;;;;;;5080982;28;20036;-72
2022/05/11 01:54:03;;;;;;;5.07;4.30;;;16.00;99.90;;;;;;5082890;28;20107;-73
2022/05/11 01:56:28;;;;;;;5.75;4.63;;;16.00;99.90;;;;;;5074158;28;20115;-72
2022/05/11 01:59:00;;;;;;;4.65;3.97;;;15.90;99.90;;;;;;5092351;28;20032;-72
2022/05/11 02:01:29;;;;;;;5.00;4.05;;;15.90;99.90;;;;;;5091866;28;20473;-72
2022/05/11 02:03:55;;;;;;;4.35;3.70;;;15.80;99.90;;;;;;5087084;28;20040;-72
2022/05/11 02:09:14;;;;;;;5.90;4.15;;;15.70;99.90;;;;;;5085644;28;20329;-73
2022/05/11 02:11:40;;;;;;;6.00;4.53;;;15.60;99.90;;;;;;5092431;28;20032;-72
2022/05/11 02:14:06;;;;;;;7.03;4.43;;;15.60;99.90;;;;;;5080461;28;20024;-73
2022/05/11 02:16:32;;;;;;;6.57;4.28;;;15.50;99.90;;;;;;5087974;28;20030;-72
2022/05/11 02:19:03;;;;;;;6.00;4.93;;;15.50;99.90;;;;;;5092207;28;20398;-72
2022/05/11 02:21:32;;;;;;;5.47;4.38;;;15.40;99.90;;;;;;5084968;28;20020;-73
2022/05/11 02:24:00;;;;;;;8.52;4.60;;;15.40;99.90;;;;;;5088126;28;20490;-71
2022/05/11 02:26:26;;;;;;;4.82;4.07;;;15.40;99.90;;;;;;5092356;28;20020;-72
2022/05/11 02:28:52;;;;;;;5.07;4.25;;;15.40;99.90;;;;;;5071687;28;20024;-71
2022/05/11 02:31:20;;;;;;;7.15;4.82;;;15.30;99.90;;;;;;5082394;28;20051;-73
2022/05/11 02:33:49;;;;;;;5.78;5.03;;;15.30;99.90;;;;;;5073320;28;20032;-73
2022/05/11 02:36:23;;;;;;;7.63;4.50;;;15.30;99.90;;;;;;5073661;28;20487;-72
2022/05/11 02:38:55;;;;;;;5.80;4.68;;;15.20;99.90;;;;;;5070375;28;20032;-72
2022/05/11 02:41:21;;;;;;;9.32;5.30;;;15.30;99.90;;;;;;5071411;28;20028;-73
2022/05/11 02:43:49;;;;;;;6.57;5.10;;;15.20;99.90;;;;;;5082272;28;20024;-71
2022/05/11 02:46:15;;;;;;;5.82;3.95;;;15.20;99.90;;;;;;5082981;28;20024;-73
2022/05/11 02:48:41;;;;;;;5.65;4.65;;;15.10;99.90;;;;;;5089581;28;20055;-72
2022/05/11 02:51:07;;;;;;;6.13;4.30;;;15.00;99.90;;;;;;5080296;28;20030;-73
2022/05/11 02:53:33;;;;;;;5.95;4.53;;;15.00;99.90;;;;;;5089454;28;20024;-70
2022/05/11 02:56:05;;;;;;;6.05;4.55;;;15.00;99.90;;;;;;5063021;28;20040;-71
2022/05/11 02:58:32;;;;;;;7.05;4.32;;;15.00;99.90;;;;;;5067578;28;20032;-72
2022/05/11 03:01:00;;;;;;;5.40;4.40;;;15.00;99.90;;;;;;5072692;28;20042;-72
2022/05/11 03:03:33;;;;;;;5.60;4.32;;;15.00;99.90;;;;;;5066165;28;20024;-72
2022/05/11 03:06:07;;;;;;;6.87;4.83;;;15.00;99.90;;;;;;5084415;28;20496;-72
2022/05/11 03:08:39;;;;;;;5.93;4.25;;;15.00;99.90;;;;;;5067468;28;20473;-72
2022/05/11 03:11:05;;;;;;;7.80;5.28;;;15.00;99.90;;;;;;5087914;28;20025;-73
2022/05/11 03:13:36;;;;;;;8.30;4.65;;;15.00;99.90;;;;;;5085865;28;20028;-73
2022/05/11 03:16:08;;;;;;;5.18;4.25;;;15.00;99.90;;;;;;5068777;28;20016;-73
2022/05/11 03:18:34;;;;;;;8.68;4.85;;;15.10;99.90;;;;;;5091772;28;20584;-72
2022/05/11 03:21:00;;;;;;;8.40;4.90;;;15.10;99.90;;;;;;5089642;28;20099;-73
2022/05/11 03:23:27;;;;;;;5.25;4.18;;;15.10;99.90;;;;;;5076919;28;20024;-73
2022/05/11 03:25:53;;;;;;;6.90;4.43;;;15.00;99.90;;;;;;5088213;28;20100;-72
2022/05/11 03:28:26;;;;;;;6.55;4.57;;;15.00;99.90;;;;;;5064749;28;20055;-73
2022/05/11 03:30:51;;;;;;;6.40;4.50;;;15.00;99.90;;;;;;5072149;28;20427;-73
2022/05/11 03:36:10;;;;;;;6.55;4.93;;;15.00;99.90;;;;;;5089618;28;20129;-73
2022/05/11 03:38:39;;;;;;;5.93;4.22;;;15.00;99.90;;;;;;5073290;28;20032;-74
2022/05/11 03:41:04;;;;;;;6.72;4.85;;;14.90;99.90;;;;;;5065800;28;20028;-72
2022/05/11 03:43:33;;;;;;;7.72;4.55;;;15.00;99.90;;;;;;5070822;28;20111;-73
2022/05/11 03:46:02;;;;;;;5.68;4.70;;;15.00;99.90;;;;;;5083977;28;20027;-73
2022/05/11 03:48:30;;;;;;;7.40;4.68;;;14.90;99.90;;;;;;5085137;28;20028;-73
2022/05/11 03:50:57;;;;;;;6.05;4.65;;;14.90;99.90;;;;;;5054872;28;20074;-72
2022/05/11 03:53:22;;;;;;;6.25;4.65;;;14.90;99.90;;;;;;5086629;28;20024;-73
2022/05/11 03:55:48;;;;;;;6.32;5.05;;;14.90;99.90;;;;;;5061108;28;20174;-72
2022/05/11 03:58:17;;;;;;;6.65;5.10;;;14.90;99.90;;;;;;5084708;28;20028;-73
2022/05/11 04:00:42;;;;;;;7.60;4.35;;;14.80;99.90;;;;;;5082092;28;20085;-70
2022/05/11 04:03:08;;;;;;;7.05;5.07;;;14.80;99.90;;;;;;5085827;28;20024;-71
2022/05/11 04:05:34;;;;;;;10.90;5.72;;;14.80;99.90;;;;;;5082916;28;20024;-70
2022/05/11 04:07:59;;;;;;;8.40;5.32;;;14.80;99.90;;;;;;5070323;28;20086;-69
2022/05/11 04:10:28;;;;;;;9.63;5.63;;;14.80;99.90;;;;;;5087025;28;20053;-70
2022/05/11 04:12:53;;;;;;;8.18;5.88;;;14.70;99.90;;;;;;5082473;28;20021;-70
2022/05/11 04:15:22;;;;;;;11.68;6.15;;;14.70;99.90;;;;;;5071329;28;20088;-70
2022/05/11 04:17:48;;;;;;;8.75;5.90;;;14.70;99.90;;;;;;5086516;28;20024;-70
2022/05/11 04:20:16;;;;;;;9.15;6.25;;;14.70;99.90;;;;;;5084336;28;20024;-70
2022/05/11 04:22:48;;;;;;;8.60;7.03;;;14.70;99.90;;;;;;5089834;28;20028;-71
2022/05/11 04:25:17;;;;;;;6.90;5.72;;;14.60;99.90;;;;;;5091294;28;20020;-71
2022/05/11 04:27:45;;;;;;;8.25;6.10;;;14.60;99.90;;;;;;5087371;28;20028;-70
2022/05/11 04:30:12;;;;;;;11.88;5.70;;;14.60;99.90;;;;;;5084584;28;20035;-70
2022/05/11 04:32:38;;;;;;;12.55;5.72;;;14.60;99.90;;;;;;5060851;28;20544;-69
2022/05/11 04:35:05;;;;;;;9.85;5.55;;;14.60;99.90;;;;;;5086515;28;20111;-70
2022/05/11 04:37:39;;;;;;;10.35;6.28;;;14.60;99.90;;;;;;5086869;28;20117;-69
2022/05/11 04:40:05;;;;;;;6.85;5.53;;;14.60;99.90;;;;;;5077040;28;20016;-71
2022/05/11 04:42:32;;;;;;;8.55;6.28;;;14.60;99.90;;;;;;5073227;28;20142;-71
2022/05/11 04:44:58;;;;;;;7.75;6.03;;;14.60;99.90;;;;;;5081159;28;20384;-72
2022/05/11 04:47:24;;;;;;;8.80;5.72;;;14.70;99.90;;;;;;5076899;28;20024;-71
2022/05/11 04:49:53;;;;;;;7.95;5.82;;;14.70;99.90;;;;;;5067375;28;20028;-70
2022/05/11 04:52:19;;;;;;;8.73;6.05;;;14.80;99.90;;;;;;5087875;28;20031;-70
2022/05/11 04:54:48;;;;;;;8.40;5.97;;;14.90;99.90;;;;;;5085427;28;20040;-68
2022/05/11 04:57:14;;;;;;;11.85;6.68;;;14.90;99.90;;;;;;5087651;28;20048;-69
2022/05/11 04:59:43;;;;;;;6.93;5.55;;;15.00;99.90;;;;;;5082988;28;20469;-68
2022/05/11 05:02:20;;;;;;;7.95;6.32;;;15.10;99.90;;;;;;5088176;28;20028;-69
2022/05/11 05:04:47;;;;;;;9.20;5.90;;;15.30;99.90;;;;;;5087694;28;20067;-68
2022/05/11 05:07:13;;;;;;;9.75;6.22;;;15.50;99.90;;;;;;5082015;28;20086;-69
2022/05/11 05:09:39;;;;;;;9.38;6.22;;;15.60;99.90;;;;;;5088653;28;20479;-69
2022/05/11 05:12:09;;;;;;;8.35;6.20;;;15.80;99.90;;;;;;5083892;28;20036;-68
2022/05/11 05:14:35;;;;;;;10.95;6.80;;;16.00;99.90;;;;;;5088416;28;20145;-68
2022/05/11 05:17:06;;;;;;;11.60;6.97;;;16.20;99.90;;;;;;5089459;28;20095;-68
2022/05/11 05:19:32;;;;;;;9.00;6.10;;;16.40;99.90;;;;;;5068546;28;20042;-70
2022/05/11 05:21:59;;;;;;;9.27;6.93;;;16.60;99.90;;;;;;5085609;28;20036;-68
2022/05/11 05:24:28;;;;;;;10.38;6.70;;;16.80;99.90;;;;;;5086856;28;20557;-69
2022/05/11 05:26:57;;;;;;;8.57;7.18;;;17.00;99.90;;;;;;5070058;28;20020;-69
2022/05/11 05:32:08;;;;;;;13.07;7.50;;;17.40;99.90;;;;;;5077617;28;20093;-70
2022/05/11 05:34:37;;;;;;;10.82;8.00;;;17.60;99.90;;;;;;5079750;28;20043;-70
2022/05/11 05:37:03;;;;;;;9.60;7.28;;;17.70;99.90;;;;;;5086679;28;20051;-70
2022/05/11 05:39:29;;;;;;;10.13;7.13;;;17.90;99.90;;;;;;5085487;28;20043;-69
2022/05/11 05:41:54;;;;;;;11.90;8.05;;;18.00;99.90;;;;;;5086897;28;20384;-70
2022/05/11 05:44:20;;;;;;;10.32;8.52;;;18.00;99.90;;;;;;5086033;28;20024;-69
2022/05/11 05:46:46;;;;;;;10.13;8.00;;;18.10;99.90;;;;;;5065345;28;20101;-69
2022/05/11 05:49:13;;;;;;;13.38;8.25;;;18.10;99.90;;;;;;5067669;28;20035;-69
2022/05/11 05:51:39;;;;;;;12.93;9.27;;;18.10;99.90;;;;;;5088910;28;20032;-69
2022/05/11 05:54:06;;;;;;;14.93;9.43;;;18.20;99.90;;;;;;5084986;28;20039;-69
2022/05/11 05:56:32;;;;;;;11.93;8.68;;;18.10;99.90;;;;;;5078933;28;20032;-73
2022/05/11 05:59:03;;;;;;;21.70;8.63;;;18.10;99.90;;;;;;5064976;28;20135;-70
2022/05/11 06:01:28;;;;;;;10.85;7.85;;;18.10;99.90;;;;;;5064467;28;20040;-71
2022/05/11 06:03:54;;;;;;;12.95;8.05;;;18.00;99.90;;;;;;5062081;28;20031;-72
2022/05/11 06:06:21;;;;;;;13.55;8.65;;;18.00;99.90;;;;;;5080082;28;20141;-70
2022/05/11 06:08:46;;;;;;;13.25;8.85;;;17.90;99.90;;;;;;5079721;28;20035;-71
2022/05/11 06:11:12;;;;;;;12.68;8.45;;;17.80;99.90;;;;;;5066224;28;20047;-71
2022/05/11 06:13:39;;;;;;;12.02;8.32;;;17.70;99.90;;;;;;5079404;28;20028;-71
2022/05/11 06:16:10;;;;;;;10.07;8.18;;;17.80;99.90;;;;;;5064374;28;20135;-71
2022/05/11 06:18:41;;;;;;;11.57;8.07;;;17.80;99.90;;;;;;5084129;28;20055;-71
2022/05/11 06:21:08;;;;;;;11.27;7.88;;;17.90;99.90;;;;;;5086065;28;20116;-71
2022/05/11 06:23:33;;;;;;;9.80;7.63;;;18.00;99.90;;;;;;5074850;28;20073;-70
2022/05/11 06:26:02;;;;;;;12.23;6.75;;;18.10;99.90;;;;;;5074194;28;20403;-70
2022/05/11 06:28:28;;;;;;;10.93;7.70;;;18.20;99.90;;;;;;5074297;28;20020;-70
2022/05/11 06:30:53;;;;;;;8.85;6.47;;;18.20;99.90;;;;;;5073576;28;20073;-70
2022/05/11 06:33:19;;;;;;;11.88;7.50;;;18.30;99.90;;;;;;5092421;28;20473;-70
2022/05/11 06:35:48;;;;;;;10.73;7.05;;;18.30;99.90;;;;;;5058998;28;20111;-70
2022/05/11 06:38:22;;;;;;;11.90;8.10;;;18.40;99.90;;;;;;5072253;28;20032;-70
2022/05/11 06:40:48;;;;;;;10.40;7.40;;;18.40;99.90;;;;;;5078870;28;20024;-70
2022/05/11 06:43:13;;;;;;;10.80;7.90;;;18.60;99.90;;;;;;5073425;28;20480;-70
2022/05/11 06:45:39;;;;;;;9.15;7.20;;;18.60;99.90;;;;;;5092256;28;20705;-70
2022/05/11 06:48:05;;;;;;;10.38;6.68;;;18.70;99.90;;;;;;5092574;28;20043;-70
2022/05/11 06:50:37;;;;;;;11.38;7.13;;;18.80;99.90;;;;;;5090979;28;20367;-70
2022/05/11 06:53:10;;;;;;;9.98;7.07;;;19.00;99.90;;;;;;5074031;28;20027;-70
2022/05/11 07:01:13;;;;;;;11.18;6.85;;;19.40;99.90;;;;;;5092149;28;20085;-70
2022/05/11 07:03:39;;;;;;;10.55;6.97;;;19.40;99.90;;;;;;5081959;28;20032;-70
2022/05/11 07:06:05;;;;;;;13.32;7.80;;;19.50;99.90;;;;;;5081555;28;20457;-69
2022/05/11 07:08:42;;;;;;;9.90;7.65;;;19.60;99.90;;;;;;5082867;28;20106;-70
2022/05/11 07:13:56;;;;;;;12.95;7.82;;;19.60;99.90;;;;;;5074294;28;20031;-68
2022/05/11 07:16:23;;;;;;;9.98;6.70;;;19.70;99.90;;;;;;5092064;28;20369;-71
2022/05/11 07:18:49;;;;;;;11.55;7.85;;;19.80;99.90;;;;;;5091950;28;20031;-70
2022/05/11 07:21:15;;;;;;;11.48;6.55;;;19.90;99.90;;;;;;5084481;28;20444;-70
2022/05/11 07:23:41;;;;;;;10.88;6.57;;;20.00;99.90;;;;;;5047879;28;20107;-70
2022/05/11 07:26:07;;;;;;;18.70;7.10;;;20.10;99.90;;;;;;5087437;28;20020;-70
2022/05/11 07:28:37;;;;;;;11.88;6.55;;;20.10;99.90;;;;;;5084369;28;20033;-70
2022/05/11 07:31:02;;;;;;;12.57;7.32;;;20.20;99.90;;;;;;5086089;28;20052;-70
2022/05/11 07:33:31;;;;;;;8.55;6.38;;;20.30;99.90;;;;;;5075030;28;20079;-70
2022/05/11 07:36:00;;;;;;;10.68;6.72;;;20.40;99.90;;;;;;5081581;28;20110;-70
2022/05/11 07:38:26;;;;;;;9.02;6.80;;;20.40;99.90;;;;;;5077803;28;20025;-71
2022/05/11 07:40:51;;;;;;;11.48;6.65;;;20.50;99.90;;;;;;5090364;28;20043;-70
2022/05/11 07:43:17;;;;;;;9.43;6.18;;;20.70;99.90;;;;;;5077769;28;20021;-70
2022/05/11 07:45:42;;;;;;;9.00;5.78;;;20.80;99.90;;;;;;5092449;28;20024;-71
2022/05/11 07:48:08;;;;;;;7.18;5.15;;;20.90;99.30;;;;;;5090118;28;20027;-70
2022/05/11 07:50:34;;;;;;;8.73;5.07;;;21.10;99.30;;;;;;5087241;28;20033;-69
2022/05/11 07:53:00;;;;;;;9.05;4.43;;;21.30;98.00;;;;;;5094903;28;20153;-70
2022/05/11 07:55:28;;;;;;;5.75;4.00;;;21.50;97.90;;;;;;5095264;28;20020;-71
2022/05/11 08:00:41;;;;;;;7.15;4.18;;;21.70;97.00;;;;;;5093941;28;20504;-70
2022/05/11 08:03:09;;;;;;;4.88;3.40;;;21.90;96.50;;;;;;5095255;28;20049;-70
2022/05/11 08:05:35;;;;;;;4.60;3.28;;;22.10;95.50;;;;;;5095124;28;20521;-70
2022/05/11 08:08:06;;;;;;;4.15;3.35;;;22.30;94.20;;;;;;5077135;28;20101;-70
2022/05/11 08:10:37;;;;;;;5.32;2.95;;;22.60;91.90;;;;;;5095452;28;20142;-69
2022/05/11 08:13:06;;;;;;;4.10;2.53;;;22.80;90.30;;;;;;5077276;28;20032;-69
2022/05/11 08:15:37;;;;;;;4.43;2.95;;;23.00;88.50;;;;;;5077107;28;20020;-69
2022/05/11 08:18:04;;;;;;;3.58;2.75;;;23.20;87.40;;;;;;5075130;28;20017;-68
2022/05/11 08:20:37;;;;;;;5.15;2.70;;;23.30;86.10;;;;;;5091165;28;20426;-69
2022/05/11 08:23:04;;;;;;;5.85;3.33;;;23.40;84.80;;;;;;5083373;28;20082;-68
2022/05/11 08:25:33;;;;;;;6.45;3.17;;;23.50;83.00;;;;;;5075295;28;20472;-69
2022/05/11 08:27:59;;;;;;;5.95;2.78;;;23.60;82.20;;;;;;5075102;28;20024;-69
2022/05/11 08:33:22;;;;;;;3.95;3.33;;;23.80;82.00;;;;;;5074961;28;20032;-69
2022/05/11 08:35:59;;;;;;;7.45;3.17;;;23.90;81.10;;;;;;5074999;28;20108;-69
2022/05/11 08:38:28;;;;;;;5.78;2.95;;;23.90;80.90;;;;;;5074777;28;20036;-69
2022/05/11 08:41:32;;;;;;;6.82;3.40;;;23.90;79.00;;;;;;5085485;28;20024;-69
2022/05/11 08:44:13;;;;;;;3.42;2.70;;;24.10;78.80;;;;;;5094850;28;20017;-69
2022/05/11 08:47:21;;;;;;;5.07;3.53;;;24.10;78.30;;;;;;5094780;28;20488;-68
2022/05/11 08:49:52;;;;;;;4.70;2.63;;;24.30;77.70;;;;;;5045259;28;20036;-68
2022/05/11 08:52:54;;;;;;;3.85;3.33;;;24.40;77.50;;;;;;5080838;28;20028;-69
2022/05/11 08:55:48;;;;;;;4.05;3.35;;;24.50;76.50;;;;;;5094688;28;20077;-69
2022/05/11 08:58:20;;;;;;;;;;;24.60;75.70;;;;;;5095273;28;20052;-68
2022/05/11 09:00:46;;;;;;;3.88;3.05;;;24.60;75.40;;;;;;5094399;28;19912;-68
2022/05/11 09:03:34;;;;;;;4.65;2.72;;;24.60;75.30;;;;;;5094090;28;20022;-68
2022/05/11 09:06:15;;;;;;;5.07;3.40;;;24.70;74.10;;;;;;5094388;28;20048;-69
2022/05/11 09:08:41;;;;;;;4.28;3.42;;;24.70;73.80;;;;;;5088647;28;20021;-68
2022/05/11 09:11:10;;;;;;;4.60;3.47;;;24.80;74.70;;;;;;5075661;28;20383;-69
2022/05/11 09:13:39;;;;;;;4.05;2.88;;;24.90;73.40;;;;;;5089125;28;20024;-68
2022/05/11 09:16:06;;;;;;;5.18;3.33;;;24.90;72.30;;;;;;5083908;28;20024;-69
2022/05/11 09:18:39;;;;;;;3.70;3.00;;;24.90;71.90;;;;;;5090679;28;20472;-69
2022/05/11 09:21:11;;;;;;;;;;;25.00;71.40;;;;;;5076024;28;20081;-70
2022/05/11 09:23:43;;;;;;;3.53;3.22;;;25.00;71.20;;;;;;5092178;28;19904;-70
2022/05/11 09:26:12;;;;;;;3.58;3.20;;;25.10;71.00;;;;;;5093736;28;20024;-71
2022/05/11 09:28:46;;;;;;;6.35;3.97;;;25.10;71.40;;;;;;5093822;28;20378;-70
2022/05/11 09:31:23;;;;;;;4.20;3.28;;;25.10;71.50;;;;;;5081444;28;20033;-70
2022/05/11 09:34:04;;;;;;;6.00;4.15;;;25.10;71.20;;;;;;5055696;28;20113;-71
2022/05/11 09:36:41;;;;;;;7.35;3.40;;;25.20;71.00;;;;;;5077657;28;20024;-71
2022/05/11 09:39:16;;;;;;;4.10;3.67;;;25.20;70.30;;;;;;5081763;28;20163;-69
2022/05/11 09:41:49;;;;;;;5.72;3.63;;;25.20;70.40;;;;;;5083044;28;20024;-71
2022/05/11 09:44:21;;;;;;;6.15;4.20;;;25.30;70.80;;;;;;5087781;28;20021;-70
2022/05/11 09:46:47;;;;;;;4.45;3.65;;;25.40;70.20;;;;;;5062847;28;20233;-70
2022/05/11 09:49:15;;;;;;;3.78;3.45;;;25.40;69.60;;;;;;5085186;28;20069;-70
2022/05/11 09:51:50;;;;;;;5.47;3.40;;;25.50;69.90;;;;;;5080270;28;20032;-71
2022/05/11 09:54:18;;;;;;;6.43;3.50;;;25.50;70.20;;;;;;5079477;28;20024;-70
2022/05/11 09:57:23;;;;;;;5.30;3.70;;;25.50;68.90;;;;;;5090183;28;20070;-70
2022/05/11 09:59:52;;;;;;;;;;;25.60;68.40;;;;;;5034939;28;20053;-76
2022/05/11 10:02:34;;;;;;;4.03;3.72;;;25.60;69.20;;;;;;5077842;28;19915;-73
2022/05/11 10:05:05;;;;;;;4.72;3.30;;;25.60;69.50;;;;;;5079117;28;20024;-74
2022/05/11 10:07:56;;;;;;;4.47;3.42;;;25.70;69.40;;;;;;5087003;28;20062;-78
2022/05/11 10:10:31;;;;;;;5.72;3.67;;;25.90;68.10;;;;;;5043687;28;20097;-77
2022/05/11 10:13:16;;;;;;;5.13;3.47;;;25.90;67.20;;;;;;5047851;28;20028;-73
2022/05/11 10:21:50;;;;;;;4.05;3.30;;;26.20;66.10;;;;;;5088434;28;20107;-76
2022/05/11 10:24:37;;;;;;;6.22;4.10;;;26.20;65.60;;;;;;5082539;28;20088;-77
2022/05/11 10:27:20;;;;;;;4.18;3.50;;;26.40;66.30;;;;;;5080046;28;20020;-77
2022/05/11 10:30:12;;;;;;;6.25;3.63;;;26.50;65.50;;;;;;5082607;28;20496;-76
2022/05/11 10:33:15;;;;;;;5.47;3.30;;;26.60;65.00;;;;;;5083227;28;20028;-76
2022/05/11 10:36:03;;;;;;;5.40;3.42;;;26.90;64.30;;;;;;5066431;28;20038;-76
2022/05/11 10:38:37;;;;;;;3.60;3.28;;;27.10;63.90;;;;;;5063930;28;20424;-74
2022/05/11 10:41:27;;;;;;;6.65;3.78;;;27.10;63.60;;;;;;5083190;28;20031;-75
2022/05/11 10:43:54;;;;;;;3.50;3.05;;;27.20;63.40;;;;;;5085799;28;20031;-74
2022/05/11 10:46:33;;;;;;;4.53;3.78;;;27.20;63.50;;;;;;5086708;28;21893;-77
2022/05/11 10:49:33;;;;;;;7.70;3.03;;;27.20;62.30;;;;;;5084480;28;20028;-77
2022/05/11 10:52:40;;;;;;;5.03;3.67;;;27.10;62.40;;;;;;5069059;28;20032;-76
2022/05/11 10:55:23;;;;;;;7.05;3.63;;;27.10;62.00;;;;;;5040095;28;20515;-76
2022/05/11 10:58:28;;;;;;;6.43;3.58;;;27.00;62.60;;;;;;5063436;28;20020;-76
2022/05/11 11:01:12;;;;;;;5.60;3.80;;;26.90;63.10;;;;;;5085264;28;20099;-75
2022/05/11 11:03:56;;;;;;;;;;;26.80;63.00;;;;;;5066839;28;20027;-75
2022/05/11 11:07:13;;;;;;;4.88;3.28;;;26.80;61.80;;;;;;5083888;28;20019;-73
2022/05/11 11:09:59;;;;;;;4.35;3.70;;;26.80;62.60;;;;;;5061619;28;20067;-75
2022/05/11 11:12:48;;;;;;;6.85;4.05;;;26.70;63.30;;;;;;5077311;28;20542;-74
2022/05/11 11:15:17;;;;;;;6.72;3.63;;;26.70;62.70;;;;;;5073765;28;20024;-74
2022/05/11 11:17:44;;;;;;;6.53;3.60;;;26.80;62.60;;;;;;5079489;28;20472;-74
2022/05/11 11:20:12;;;;;;;7.40;3.70;;;27.00;62.50;;;;;;5061444;28;20038;-76
2022/05/11 11:23:00;;;;;;;6.20;3.70;;;27.10;61.60;;;;;;5082227;28;20028;-75
2022/05/11 11:25:26;;;;;;;7.03;3.58;;;27.30;60.70;;;;;;5081406;28;20024;-75
2022/05/11 11:28:15;;;;;;;4.53;3.00;;;27.40;59.90;;;;;;5065869;28;20024;-75
2022/05/11 11:31:04;;;;;;;5.22;3.28;;;27.50;59.10;;;;;;5080527;28;20074;-75
2022/05/11 11:33:54;;;;;;;5.95;3.70;;;27.50;59.10;;;;;;5083261;28;20395;-76
2022/05/11 11:36:26;;;;;;;6.15;3.42;;;27.70;58.90;;;;;;5082648;28;20501;-76
2022/05/11 11:38:53;;;;;;;4.25;3.20;;;27.70;59.00;;;;;;5070942;28;20092;-75
2022/05/11 11:41:28;;;;;;;5.18;3.33;;;27.60;58.80;;;;;;5069419;28;20112;-75
2022/05/11 11:43:59;;;;;;;5.18;3.80;;;27.60;58.30;;;;;;5090485;28;20012;-75
2022/05/11 11:46:44;;;;;;;5.68;3.90;;;27.70;58.50;;;;;;5089294;28;20386;-77
2022/05/11 11:49:19;;;;;;;5.40;3.50;;;27.90;58.70;;;;;;5091009;28;20052;-77
2022/05/11 11:51:53;;;;;;;4.50;3.67;;;28.00;57.70;;;;;;5069760;28;20044;-76
2022/05/11 11:54:43;;;;;;;6.28;3.80;;;28.10;57.20;;;;;;5099622;28;21143;-77
2022/05/11 11:57:16;;;;;;;3.92;3.53;;;28.20;57.00;;;;;;5085469;28;20307;-74
2022/05/11 11:59:42;;;;;;;;;;;28.30;56.30;;;;;;5097738;28;20023;-77
2022/05/11 12:02:32;;;;;;;6.95;3.63;;;28.30;56.70;;;;;;5073834;28;20006;-76
2022/05/11 12:05:04;;;;;;;4.03;3.58;;;28.30;56.50;;;;;;5087542;28;20106;-75
2022/05/11 12:16:29;;;;;;;4.05;3.22;;;28.10;55.30;;;;;;5085809;28;20116;-75
2022/05/11 12:19:10;;;;;;;3.50;3.20;;;28.10;55.40;;;;;;5063787;28;20043;-76
2022/05/11 12:21:38;;;;;;;3.42;2.92;;;28.20;55.90;;;;;;5066948;28;20046;-75
2022/05/11 12:24:07;;;;;;;4.15;3.20;;;28.30;56.20;;;;;;5085316;28;20103;-76
2022/05/11 12:26:39;;;;;;;3.78;3.17;;;28.50;55.00;;;;;;5071312;28;20089;-76
2022/05/11 12:32:00;;;;;;;5.15;3.38;;;28.60;52.70;;;;;;5083286;28;20040;-78
2022/05/11 12:34:28;;;;;;;3.83;3.42;;;28.60;53.60;;;;;;5087570;28;20047;-76
2022/05/11 12:36:55;;;;;;;3.72;3.42;;;28.80;53.60;;;;;;5093044;28;20031;-77
2022/05/11 12:39:35;;;;;;;3.55;3.25;;;28.80;53.70;;;;;;5072338;28;20473;-77
2022/05/11 12:42:02;;;;;;;6.05;3.40;;;28.80;53.80;;;;;;5092054;28;20499;-76
2022/05/11 12:44:31;;;;;;;5.95;3.92;;;28.90;54.00;;;;;;5091029;28;20107;-78
2022/05/11 12:47:01;;;;;;;4.63;3.67;;;28.90;53.80;;;;;;5072166;28;20039;-76
2022/05/11 12:49:28;;;;;;;4.50;3.35;;;28.80;53.50;;;;;;5086524;28;20111;-76
2022/05/11 12:51:59;;;;;;;4.13;3.15;;;28.70;53.60;;;;;;5085165;28;20030;-74
2022/05/11 12:54:27;;;;;;;4.80;3.28;;;28.70;54.20;;;;;;5081961;28;20035;-75
2022/05/11 12:57:19;;;;;;;5.90;3.28;;;28.70;52.80;;;;;;5068152;28;20028;-75
2022/05/11 12:59:54;;;;;;;5.40;3.25;;;28.60;53.20;;;;;;5086973;28;20040;-75
2022/05/11 13:02:25;;;;;;;5.93;3.53;;;28.70;53.70;;;;;;5087205;28;20032;-76
2022/05/11 13:04:56;;;;;;;5.07;3.17;;;28.80;53.60;;;;;;5086987;28;20027;-75
2022/05/11 13:07:32;;;;;;;4.80;3.22;;;28.80;53.00;;;;;;5066480;28;20033;-75
2022/05/11 13:10:00;;;;;;;3.97;2.70;;;28.80;52.90;;;;;;5087384;28;20023;-76
2022/05/11 13:12:28;;;;;;;4.05;2.90;;;28.70;53.00;;;;;;5091843;28;20036;-75
2022/05/11 13:14:56;;;;;;;6.03;3.20;;;28.60;53.20;;;;;;5074460;28;20020;-76
2022/05/11 13:17:34;;;;;;;3.75;3.10;;;28.50;53.60;;;;;;5086247;28;20103;-74
2022/05/11 13:20:22;;;;;;;7.60;3.65;;;28.50;53.70;;;;;;5088319;28;20365;-76
2022/05/11 13:22:50;;;;;;;3.42;3.13;;;28.50;53.60;;;;;;5089863;28;20077;-76
2022/05/11 13:25:55;;;;;;;5.40;2.75;;;28.50;52.90;;;;;;5086801;28;20092;-76
2022/05/11 13:28:26;;;;;;;4.70;3.00;;;28.60;52.50;;;;;;5087359;28;20456;-75
2022/05/11 13:30:54;;;;;;;10.85;2.72;;;28.80;52.50;;;;;;5088381;28;20051;-73
2022/05/11 13:33:34;;;;;;;4.75;2.95;;;28.80;52.10;;;;;;5085719;28;20431;-76
2022/05/11 13:36:36;;;;;;;5.50;3.00;;;28.80;52.30;;;;;;5064984;28;20036;-74
2022/05/11 13:39:12;;;;;;;7.85;3.00;;;28.70;52.90;;;;;;5086015;28;20704;-75
2022/05/11 13:42:00;;;;;;;3.85;3.20;;;28.80;53.10;;;;;;5065512;28;20028;-75
2022/05/11 13:44:40;;;;;;;3.85;2.83;;;28.70;52.60;;;;;;5079449;28;20047;-75
2022/05/11 13:50:27;;;;;;;4.22;3.05;;;28.70;53.20;;;;;;5086122;28;20519;-76
2022/05/11 13:53:16;;;;;;;4.68;3.50;;;28.50;53.00;;;;;;5087669;28;20506;-76
2022/05/11 13:55:58;;;;;;;4.22;3.08;;;28.40;53.50;;;;;;5087963;28;20036;-77